createdAt,value
2019-05-16T00:00:40.509Z,5.12
2019-05-16T00:03:11.113Z,6.25
2019-05-16T00:05:50.837Z,6.17
2019-05-16T00:08:12.943Z,5.35
2019-05-16T00:10:42.517Z,4.08
2019-05-16T00:13:11.933Z,4.78
2019-05-16T00:15:41.583Z,7.15
2019-05-16T00:18:11.414Z,5.28
2019-05-16T00:20:40.878Z,4.28
2019-05-16T00:23:10.219Z,6.85
2019-05-16T00:25:39.539Z,6.42
2019-05-16T00:28:09.050Z,7.53
2019-05-16T00:30:39.106Z,4.10
2019-05-16T00:33:08.584Z,5.45
2019-05-16T00:35:38.866Z,7.30
2019-05-16T00:38:08.895Z,8.40
2019-05-16T00:40:39.752Z,6.85
2019-05-16T00:43:09.154Z,5.42
2019-05-16T00:45:38.705Z,5.33
2019-05-16T00:48:08.964Z,7.62
2019-05-16T00:50:39.835Z,4.25
2019-05-16T00:53:09.298Z,6.65
2019-05-16T00:55:39.815Z,9.43
2019-05-16T00:58:14.023Z,5.55
2019-05-16T01:00:49.767Z,6.83
2019-05-16T01:03:20.469Z,7.60
2019-05-16T01:05:50.133Z,6.10
2019-05-16T01:08:19.558Z,8.95
2019-05-16T01:10:51.453Z,8.45
2019-05-16T01:13:19.969Z,5.33
2019-05-16T01:15:49.304Z,7.30
2019-05-16T01:18:20.791Z,5.75
2019-05-16T01:20:51.187Z,8.28
2019-05-16T01:23:20.507Z,8.15
2019-05-16T01:25:49.827Z,7.33
2019-05-16T01:28:20.638Z,7.08
2019-05-16T01:30:49.918Z,7.60
2019-05-16T01:33:19.500Z,5.35
2019-05-16T01:35:50.016Z,7.87
2019-05-16T01:38:19.406Z,8.45
2019-05-16T01:40:53.184Z,9.35
2019-05-16T01:43:22.491Z,8.25
2019-05-16T01:45:54.500Z,9.35
2019-05-16T01:48:23.886Z,12.90
2019-05-16T01:50:53.231Z,9.38
2019-05-16T01:53:22.627Z,7.60
2019-05-16T01:55:51.976Z,6.28
2019-05-16T01:58:21.370Z,8.10
2019-05-16T02:01:02.477Z,4.78
2019-05-16T02:03:21.743Z,6.85
2019-05-16T02:05:51.071Z,7.72
2019-05-16T02:08:20.382Z,11.12
2019-05-16T02:10:49.713Z,8.23
2019-05-16T02:13:19.040Z,9.98
2019-05-16T02:15:48.986Z,6.17
2019-05-16T02:18:19.540Z,7.35
2019-05-16T02:20:48.851Z,6.00
2019-05-16T02:23:18.766Z,5.95
2019-05-16T02:25:49.123Z,6.05
2019-05-16T02:28:23.608Z,6.85
2019-05-16T02:30:51.690Z,6.72
2019-05-16T02:33:21.681Z,9.20
2019-05-16T02:35:55.427Z,9.53
2019-05-16T02:38:22.445Z,5.17
2019-05-16T02:40:55.049Z,11.97
2019-05-16T02:43:26.266Z,8.65
2019-05-16T02:45:53.809Z,8.88
2019-05-16T02:48:24.109Z,9.93
2019-05-16T02:50:53.430Z,8.28
2019-05-16T02:53:22.913Z,10.03
2019-05-16T02:55:52.371Z,10.20
2019-05-16T02:58:23.432Z,8.85
2019-05-16T03:00:52.888Z,13.43
2019-05-16T03:03:22.556Z,7.00
2019-05-16T03:05:53.724Z,11.57
2019-05-16T03:08:24.172Z,8.88
2019-05-16T03:10:54.365Z,10.13
2019-05-16T03:13:23.753Z,11.93
2019-05-16T03:15:53.107Z,11.97
2019-05-16T03:18:24.159Z,11.85
2019-05-16T03:20:56.381Z,14.30
2019-05-16T03:23:27.259Z,10.30
2019-05-16T03:25:56.968Z,11.68
2019-05-16T03:28:26.275Z,9.05
2019-05-16T03:30:55.600Z,13.58
2019-05-16T03:33:32.689Z,13.35
2019-05-16T03:35:56.250Z,7.35
2019-05-16T03:38:25.893Z,11.18
2019-05-16T03:40:55.234Z,9.55
2019-05-16T03:43:24.608Z,11.05
2019-05-16T03:45:53.928Z,10.80
2019-05-16T03:48:23.330Z,8.13
2019-05-16T03:50:52.639Z,8.50
2019-05-16T03:53:22.948Z,9.83
2019-05-16T03:55:52.262Z,11.10
2019-05-16T03:58:22.865Z,7.90
2019-05-16T04:00:55.516Z,9.70
2019-05-16T04:03:28.539Z,9.68
2019-05-16T04:05:56.187Z,8.68
2019-05-16T04:08:26.736Z,8.25
2019-05-16T04:10:56.053Z,9.78
2019-05-16T04:13:25.448Z,8.48
2019-05-16T04:15:54.769Z,8.23
2019-05-16T04:18:24.108Z,8.05
2019-05-16T04:20:53.404Z,7.83
2019-05-16T04:23:22.731Z,7.42
2019-05-16T04:25:52.971Z,5.87
2019-05-16T04:28:23.312Z,7.55
2019-05-16T04:30:53.048Z,5.70
2019-05-16T04:33:22.766Z,6.87
2019-05-16T04:35:53.397Z,7.87
2019-05-16T04:38:35.334Z,6.30
2019-05-16T04:40:53.914Z,9.43
2019-05-16T04:43:24.482Z,6.22
2019-05-16T04:45:53.812Z,7.33
2019-05-16T04:48:23.323Z,7.20
2019-05-16T04:50:52.884Z,6.53
2019-05-16T04:53:24.162Z,7.00
2019-05-16T04:55:53.471Z,5.20
2019-05-16T04:58:23.943Z,6.83
2019-05-16T05:00:53.551Z,5.12
2019-05-16T05:03:23.179Z,5.72
2019-05-16T05:05:53.624Z,6.22
2019-05-16T05:08:23.109Z,5.37
2019-05-16T05:10:52.535Z,6.15
2019-05-16T05:13:22.999Z,5.55
2019-05-16T05:15:52.335Z,6.08
2019-05-16T05:18:21.895Z,7.00
2019-05-16T05:20:52.649Z,6.28
2019-05-16T05:23:22.475Z,7.12
2019-05-16T05:25:51.911Z,6.45
2019-05-16T05:28:22.895Z,8.15
2019-05-16T05:30:52.202Z,6.50
2019-05-16T05:33:21.551Z,7.42
2019-05-16T05:35:51.246Z,5.50
2019-05-16T05:38:21.606Z,7.28
2019-05-16T05:40:52.321Z,8.75
2019-05-16T05:43:21.974Z,7.80
2019-05-16T05:45:51.788Z,6.42
2019-05-16T05:48:22.122Z,7.20
2019-05-16T05:50:52.265Z,7.55
2019-05-16T05:53:21.607Z,6.65
2019-05-16T05:55:51.876Z,7.60
2019-05-16T05:58:21.774Z,7.08
2019-05-16T06:00:52.237Z,8.15
2019-05-16T06:03:23.012Z,5.55
2019-05-16T06:05:52.705Z,6.60
2019-05-16T06:08:22.035Z,7.03
2019-05-16T06:10:51.370Z,5.75
2019-05-16T06:13:21.048Z,5.58
2019-05-16T06:15:51.342Z,5.17
2019-05-16T06:18:21.000Z,4.75
2019-05-16T06:20:51.634Z,5.30
2019-05-16T06:23:21.202Z,7.35
2019-05-16T06:25:51.133Z,5.75
2019-05-16T06:28:21.306Z,4.78
2019-05-16T06:30:51.829Z,4.75
2019-05-16T06:33:22.204Z,6.30
2019-05-16T06:35:51.748Z,7.58
2019-05-16T06:38:22.124Z,6.70
2019-05-16T06:40:52.589Z,6.97
2019-05-16T06:43:22.564Z,7.15
2019-05-16T06:45:52.934Z,5.00
2019-05-16T06:48:22.282Z,6.72
2019-05-16T06:50:52.054Z,5.92
2019-05-16T06:53:21.691Z,5.47
2019-05-16T06:55:51.089Z,5.75
2019-05-16T06:58:22.212Z,6.75
2019-05-16T07:00:52.582Z,4.45
2019-05-16T07:03:22.266Z,5.65
2019-05-16T07:05:51.646Z,4.30
2019-05-16T07:08:23.664Z,4.65
2019-05-16T07:10:53.066Z,4.42
2019-05-16T07:13:22.413Z,4.60
2019-05-16T07:15:51.732Z,5.05
2019-05-16T07:18:21.478Z,4.83
2019-05-16T07:20:51.461Z,7.37
2019-05-16T07:23:21.363Z,3.98
2019-05-16T07:25:51.011Z,5.70
2019-05-16T07:28:21.076Z,4.37
2019-05-16T07:30:51.801Z,6.37
2019-05-16T07:33:22.202Z,5.67
2019-05-16T07:35:51.711Z,6.10
2019-05-16T07:38:21.206Z,8.73
2019-05-16T07:40:51.158Z,7.70
2019-05-16T07:43:21.107Z,6.72
2019-05-16T07:45:51.208Z,8.48
2019-05-16T07:48:22.003Z,5.75
2019-05-16T07:50:51.951Z,8.98
2019-05-16T07:53:21.677Z,9.88
2019-05-16T07:55:51.343Z,9.78
2019-05-16T07:58:22.394Z,8.73
2019-05-16T08:01:01.795Z,11.48
2019-05-16T08:03:22.975Z,11.83
2019-05-16T08:05:52.387Z,10.90
2019-05-16T08:08:24.206Z,12.40
2019-05-16T08:10:52.748Z,11.22
2019-05-16T08:13:22.089Z,14.38
2019-05-16T08:15:53.042Z,13.65
2019-05-16T08:18:22.380Z,12.15
2019-05-16T08:20:52.668Z,12.55
2019-05-16T08:23:22.934Z,11.15
2019-05-16T08:25:52.449Z,9.83
2019-05-16T08:28:22.121Z,9.70
2019-05-16T08:30:53.140Z,11.33
2019-05-16T08:33:22.745Z,10.65
2019-05-16T08:35:53.150Z,10.78
2019-05-16T08:38:22.468Z,14.00
2019-05-16T08:41:08.061Z,11.50
2019-05-16T08:43:22.852Z,11.35
2019-05-16T08:45:52.276Z,10.53
2019-05-16T08:48:23.405Z,11.15
2019-05-16T08:50:54.645Z,9.15
2019-05-16T08:53:23.691Z,9.58
2019-05-16T08:55:53.054Z,9.93
2019-05-16T08:58:22.954Z,7.50
2019-05-16T09:00:55.932Z,8.53
2019-05-16T09:03:23.822Z,9.50
2019-05-16T09:05:53.757Z,9.10
2019-05-16T09:08:24.513Z,8.80
2019-05-16T09:11:01.678Z,8.00
2019-05-16T09:13:28.039Z,6.33
2019-05-16T09:15:57.530Z,6.08
2019-05-16T09:18:28.929Z,6.15
2019-05-16T09:20:58.545Z,8.15
2019-05-16T09:23:27.868Z,9.08
2019-05-16T09:25:58.431Z,5.72
2019-05-16T09:28:29.007Z,7.00
2019-05-16T09:30:58.399Z,6.78
2019-05-16T09:33:27.779Z,7.60
2019-05-16T09:35:57.632Z,7.35
2019-05-16T09:38:32.738Z,5.45
2019-05-16T09:40:59.868Z,7.50
2019-05-16T09:43:29.978Z,5.53
2019-05-16T09:46:03.782Z,6.53
2019-05-16T09:48:30.554Z,9.63
2019-05-16T09:50:59.927Z,6.65
2019-05-16T09:53:29.407Z,6.95
2019-05-16T09:55:58.805Z,5.55
2019-05-16T09:58:28.276Z,7.70
2019-05-16T10:00:58.299Z,5.40
2019-05-16T10:03:28.524Z,8.65
2019-05-16T10:05:57.927Z,5.80
2019-05-16T10:08:27.326Z,5.03
2019-05-16T10:10:57.223Z,5.83
2019-05-16T10:13:27.782Z,4.60
2019-05-16T10:15:57.536Z,5.25
2019-05-16T10:18:27.745Z,6.05
2019-05-16T10:20:59.358Z,7.47
2019-05-16T10:23:28.569Z,6.72
2019-05-16T10:25:59.323Z,7.17
2019-05-16T10:28:28.667Z,6.72
2019-05-16T10:30:58.028Z,6.20
2019-05-16T10:33:28.801Z,6.50
2019-05-16T10:35:58.240Z,7.25
2019-05-16T10:38:28.649Z,8.50
2019-05-16T10:40:58.254Z,5.33
2019-05-16T10:43:27.658Z,7.55
2019-05-16T10:45:56.979Z,6.55
2019-05-16T10:48:27.018Z,6.97
2019-05-16T10:50:57.630Z,6.70
2019-05-16T10:53:57.977Z,5.55
2019-05-16T10:56:04.357Z,7.58
2019-05-16T10:58:41.570Z,6.45
2019-05-16T11:01:19.571Z,8.20
2019-05-16T11:03:35.827Z,5.75
2019-05-16T11:06:08.607Z,4.90
2019-05-16T11:08:39.594Z,4.58
2019-05-16T11:11:10.096Z,4.97
2019-05-16T11:13:39.414Z,5.12
2019-05-16T11:16:09.596Z,5.10
2019-05-16T11:18:39.094Z,4.85
2019-05-16T11:21:08.415Z,5.53
2019-05-16T11:23:38.270Z,3.98
2019-05-16T11:26:08.666Z,5.25
2019-05-16T11:28:38.033Z,4.75
2019-05-16T11:31:07.898Z,5.92
2019-05-16T11:33:38.338Z,4.50
2019-05-16T11:36:11.887Z,5.17
2019-05-16T11:38:38.753Z,3.50
2019-05-16T11:41:08.115Z,5.40
2019-05-16T11:43:43.051Z,3.50
2019-05-16T11:46:12.801Z,4.08
2019-05-16T11:48:43.191Z,5.08
2019-05-16T11:51:12.568Z,3.70
2019-05-16T11:53:41.942Z,5.50
2019-05-16T11:56:11.337Z,5.08
2019-05-16T11:58:40.667Z,4.75
2019-05-16T12:01:10.024Z,3.67
2019-05-16T12:03:39.443Z,4.90
2019-05-16T12:06:10.850Z,4.17
2019-05-16T12:08:39.850Z,3.90
2019-05-16T12:11:09.251Z,4.83
2019-05-16T12:13:38.583Z,4.92
2019-05-16T12:16:07.987Z,5.20
2019-05-16T12:18:38.430Z,5.78
2019-05-16T12:21:07.968Z,5.45
2019-05-16T12:23:40.615Z,4.67
2019-05-16T12:26:10.019Z,5.10
2019-05-16T12:28:39.330Z,4.33
2019-05-16T12:31:08.663Z,5.87
2019-05-16T12:33:38.047Z,5.22
2019-05-16T12:36:07.712Z,6.05
2019-05-16T12:38:38.144Z,5.85
2019-05-16T12:41:08.065Z,6.92
2019-05-16T12:43:46.155Z,6.08
2019-05-16T12:46:08.432Z,7.83
2019-05-16T12:48:38.111Z,6.55
2019-05-16T12:51:08.407Z,7.53
2019-05-16T12:53:38.448Z,9.33
2019-05-16T12:56:09.041Z,7.67
2019-05-16T12:58:42.246Z,8.80
2019-05-16T13:01:10.439Z,7.72
2019-05-16T13:03:39.844Z,9.05
2019-05-16T13:06:09.262Z,11.28
2019-05-16T13:08:38.587Z,10.58
2019-05-16T13:11:07.969Z,11.70
2019-05-16T13:13:38.625Z,9.75
2019-05-16T13:16:08.313Z,10.63
2019-05-16T13:18:37.635Z,11.00
2019-05-16T13:21:07.082Z,12.82
2019-05-16T13:23:36.488Z,11.18
2019-05-16T13:26:07.267Z,14.35
2019-05-16T13:28:38.324Z,14.00
2019-05-16T13:31:08.117Z,15.53
2019-05-16T13:33:37.521Z,13.93
2019-05-16T13:36:07.491Z,13.53
2019-05-16T13:38:37.344Z,14.20
2019-05-16T13:41:07.600Z,14.43
2019-05-16T13:43:37.689Z,13.83
2019-05-16T13:46:07.493Z,16.42
2019-05-16T13:48:37.653Z,16.15
2019-05-16T13:51:14.859Z,15.13
2019-05-16T13:53:39.572Z,15.32
2019-05-16T13:56:13.142Z,17.90
2019-05-16T13:58:40.106Z,14.65
2019-05-16T14:01:10.289Z,15.88
2019-05-16T14:03:39.910Z,14.43
2019-05-16T14:06:09.348Z,14.50
2019-05-16T14:08:38.785Z,17.17
2019-05-16T14:11:10.802Z,14.70
2019-05-16T14:13:40.662Z,15.68
2019-05-16T14:16:09.988Z,16.15
2019-05-16T14:18:39.419Z,14.55
2019-05-16T14:21:09.479Z,14.93
2019-05-16T14:23:40.556Z,15.28
2019-05-16T14:26:17.775Z,15.93
2019-05-16T14:28:50.018Z,19.05
2019-05-16T14:31:24.367Z,20.55
2019-05-16T14:34:00.464Z,17.45
2019-05-16T14:36:31.292Z,18.20
2019-05-16T14:39:00.714Z,20.37
2019-05-16T14:41:30.219Z,20.08
2019-05-16T14:44:00.366Z,19.85
2019-05-16T14:46:29.762Z,20.80
2019-05-16T14:48:59.191Z,19.10
2019-05-16T14:51:31.833Z,20.12
2019-05-16T14:53:59.647Z,21.02
2019-05-16T14:56:28.986Z,24.90
2019-05-16T14:58:58.400Z,21.42
2019-05-16T15:01:27.791Z,21.10
2019-05-16T15:03:57.131Z,24.23
2019-05-16T15:06:27.515Z,20.50
2019-05-16T15:08:56.979Z,22.70
2019-05-16T15:11:28.220Z,21.52
2019-05-16T15:13:57.555Z,25.08
2019-05-16T15:16:27.412Z,21.68
2019-05-16T15:18:57.530Z,22.52
2019-05-16T15:21:27.204Z,25.27
2019-05-16T15:23:59.413Z,22.70
2019-05-16T15:26:27.560Z,24.07
2019-05-16T15:28:59.008Z,21.05
2019-05-16T15:31:28.073Z,22.67
2019-05-16T15:33:57.416Z,21.02
2019-05-16T15:36:27.140Z,22.65
2019-05-16T15:38:59.448Z,24.27
2019-05-16T15:41:27.696Z,26.35
2019-05-16T15:43:59.274Z,21.75
2019-05-16T15:46:28.161Z,24.30
2019-05-16T15:49:00.478Z,26.90
2019-05-16T15:51:28.839Z,21.85
2019-05-16T15:53:58.826Z,23.67
2019-05-16T15:56:28.219Z,21.30
2019-05-16T15:58:57.647Z,22.70
2019-05-16T16:01:28.137Z,22.73
2019-05-16T16:03:57.627Z,21.85
2019-05-16T16:06:27.585Z,24.98
2019-05-16T16:09:02.642Z,22.85
2019-05-16T16:11:33.647Z,21.77
2019-05-16T16:14:07.051Z,22.52
2019-05-16T16:16:36.761Z,23.50
2019-05-16T16:19:06.620Z,25.40
2019-05-16T16:21:38.130Z,26.25
2019-05-16T16:24:09.467Z,27.45
2019-05-16T16:26:39.841Z,28.00
2019-05-16T16:29:09.748Z,30.68
2019-05-16T16:31:40.558Z,32.78
2019-05-16T16:34:10.096Z,35.85
2019-05-16T16:36:39.423Z,31.02
2019-05-16T16:39:08.855Z,29.98
2019-05-16T16:41:38.225Z,25.62
2019-05-16T16:44:07.818Z,31.17
2019-05-16T16:46:37.672Z,23.42
2019-05-16T16:49:07.590Z,23.87
2019-05-16T16:51:37.561Z,24.43
2019-05-16T16:54:08.312Z,25.15
2019-05-16T16:56:37.761Z,26.00
2019-05-16T16:59:07.182Z,27.05
2019-05-16T17:01:37.359Z,26.73
2019-05-16T17:04:07.104Z,27.62
2019-05-16T17:06:37.433Z,26.35
2019-05-16T17:09:07.677Z,22.15
2019-05-16T17:11:37.187Z,23.42
2019-05-16T17:14:07.126Z,28.15
2019-05-16T17:16:37.768Z,24.27
2019-05-16T17:19:07.742Z,23.87
2019-05-16T17:21:37.460Z,24.25
2019-05-16T17:24:06.827Z,25.25
2019-05-16T17:26:37.823Z,27.42
2019-05-16T17:29:08.128Z,25.95
2019-05-16T17:31:39.014Z,24.50
2019-05-16T17:34:08.633Z,27.22
2019-05-16T17:36:39.177Z,28.83
2019-05-16T17:39:08.491Z,27.87
2019-05-16T17:41:37.857Z,26.95
2019-05-16T17:44:07.178Z,29.02
2019-05-16T17:46:40.132Z,29.70
2019-05-16T17:49:07.623Z,24.00
2019-05-16T17:51:37.048Z,26.37
2019-05-16T17:54:07.527Z,26.35
2019-05-16T17:56:37.121Z,25.97
2019-05-16T17:59:07.283Z,29.20
2019-05-16T18:01:36.810Z,26.62
2019-05-16T18:04:06.532Z,27.90
2019-05-16T18:06:37.141Z,25.85
2019-05-16T18:09:08.749Z,27.07
2019-05-16T18:11:38.155Z,24.18
2019-05-16T18:14:08.170Z,25.20
2019-05-16T18:16:51.655Z,27.27
2019-05-16T18:19:09.604Z,28.92
2019-05-16T18:21:39.193Z,28.10
2019-05-16T18:24:09.024Z,28.02
2019-05-16T18:26:38.837Z,27.52
2019-05-16T18:29:10.775Z,29.65
2019-05-16T18:31:40.912Z,31.77
2019-05-16T18:34:11.215Z,31.73
2019-05-16T18:36:41.870Z,31.90
2019-05-16T18:39:13.425Z,29.57
2019-05-16T18:41:44.182Z,29.95
2019-05-16T18:44:13.703Z,32.38
2019-05-16T18:46:43.200Z,34.23
2019-05-16T18:49:12.631Z,29.10
2019-05-16T18:51:42.327Z,29.80
2019-05-16T18:54:12.739Z,30.35
2019-05-16T18:56:42.225Z,28.25
2019-05-16T18:59:12.057Z,27.58
2019-05-16T19:01:41.535Z,27.35
2019-05-16T19:04:13.279Z,26.85
2019-05-16T19:06:42.006Z,24.95
2019-05-16T19:09:11.608Z,26.20
2019-05-16T19:11:43.960Z,26.82
2019-05-16T19:14:13.604Z,26.10
2019-05-16T19:16:43.198Z,27.60
2019-05-16T19:19:13.044Z,29.12
2019-05-16T19:21:43.573Z,26.57
2019-05-16T19:24:16.313Z,30.57
2019-05-16T19:26:46.948Z,26.77
2019-05-16T19:29:17.578Z,26.00
2019-05-16T19:31:50.299Z,26.62
2019-05-16T19:34:18.360Z,28.15
2019-05-16T19:36:49.271Z,26.73
2019-05-16T19:39:19.209Z,24.47
2019-05-16T19:41:48.563Z,25.85
2019-05-16T19:44:18.102Z,26.05
2019-05-16T19:46:47.592Z,27.60
2019-05-16T19:49:17.409Z,26.23
2019-05-16T19:51:48.989Z,24.90
2019-05-16T19:54:19.357Z,25.30
2019-05-16T19:56:48.928Z,26.00
2019-05-16T19:59:18.451Z,25.48
2019-05-16T20:01:47.809Z,23.32
2019-05-16T20:04:19.507Z,32.20
2019-05-16T20:06:49.364Z,24.98
2019-05-16T20:09:19.162Z,25.25
2019-05-16T20:11:49.165Z,23.75
2019-05-16T20:14:19.828Z,26.02
2019-05-16T20:16:49.508Z,26.75
2019-05-16T20:19:22.159Z,28.65
2019-05-16T20:21:51.599Z,27.65
2019-05-16T20:24:21.437Z,27.87
2019-05-16T20:26:51.401Z,27.17
2019-05-16T20:29:23.278Z,26.95
2019-05-16T20:31:53.529Z,26.48
2019-05-16T20:34:26.636Z,24.87
2019-05-16T20:36:54.464Z,25.43
2019-05-16T20:39:26.679Z,30.27
2019-05-16T20:42:19.060Z,27.32
2019-05-16T20:44:51.755Z,27.52
2019-05-16T20:47:21.343Z,26.02
2019-05-16T20:49:50.857Z,25.68
2019-05-16T20:52:21.096Z,27.87
2019-05-16T20:54:50.555Z,26.85
2019-05-16T20:57:20.075Z,27.02
2019-05-16T20:59:50.117Z,28.90
2019-05-16T21:02:19.527Z,28.95
2019-05-16T21:04:49.214Z,33.75
2019-05-16T21:07:18.544Z,31.62
2019-05-16T21:09:49.311Z,33.65
2019-05-16T21:12:19.448Z,34.63
2019-05-16T21:14:50.825Z,36.60
2019-05-16T21:17:20.237Z,34.23
2019-05-16T21:19:50.275Z,36.53
2019-05-16T21:22:19.670Z,38.78
2019-05-16T21:24:50.102Z,38.35
2019-05-16T21:27:19.445Z,40.38
2019-05-16T21:29:50.628Z,37.90
2019-05-16T21:32:20.350Z,36.35
2019-05-16T21:34:50.849Z,34.78
2019-05-16T21:37:20.575Z,31.30
2019-05-16T21:39:51.013Z,34.73
2019-05-16T21:42:22.493Z,33.80
2019-05-16T21:44:51.905Z,36.10
2019-05-16T21:47:21.244Z,37.25
2019-05-16T21:49:50.574Z,36.40
2019-05-16T21:52:20.883Z,38.02
2019-05-16T21:54:50.310Z,39.35
2019-05-16T21:57:19.974Z,36.53
2019-05-16T21:59:49.505Z,40.28
2019-05-16T22:02:18.897Z,39.92
2019-05-16T22:04:48.292Z,39.05
2019-05-16T22:07:17.622Z,38.28
2019-05-16T22:09:48.651Z,42.03
2019-05-16T22:12:18.007Z,41.83
2019-05-16T22:14:51.466Z,38.98
2019-05-16T22:17:20.812Z,38.55
2019-05-16T22:19:50.277Z,41.70
2019-05-16T22:22:19.779Z,42.60
2019-05-16T22:24:49.336Z,46.35
2019-05-16T22:27:20.522Z,44.13
2019-05-16T22:29:49.978Z,43.90
2019-05-16T22:32:19.376Z,45.63
2019-05-16T22:34:49.844Z,53.75
2019-05-16T22:37:19.156Z,44.88
2019-05-16T22:39:48.521Z,46.23
2019-05-16T22:42:18.932Z,48.05
2019-05-16T22:44:48.317Z,42.48
2019-05-16T22:47:17.878Z,42.43
2019-05-16T22:49:47.663Z,44.53
2019-05-16T22:52:17.323Z,42.85
2019-05-16T22:54:47.658Z,45.38
2019-05-16T22:57:17.719Z,41.25
2019-05-16T22:59:47.328Z,43.23
2019-05-16T23:02:16.947Z,45.00
2019-05-16T23:04:47.489Z,41.20
2019-05-16T23:07:17.189Z,43.78
2019-05-16T23:09:47.197Z,45.85
2019-05-16T23:12:17.366Z,45.90
2019-05-16T23:14:46.937Z,47.50
2019-05-16T23:17:17.309Z,44.70
2019-05-16T23:19:47.422Z,45.20
2019-05-16T23:22:17.079Z,46.90
2019-05-16T23:24:47.526Z,47.35
2019-05-16T23:27:16.901Z,53.23
2019-05-16T23:29:47.384Z,49.93
2019-05-16T23:32:17.067Z,45.83
2019-05-16T23:34:46.659Z,46.30
2019-05-16T23:37:16.081Z,51.60
2019-05-16T23:39:47.489Z,52.17
2019-05-16T23:42:17.020Z,51.13
2019-05-16T23:44:47.345Z,54.35
2019-05-16T23:47:16.893Z,53.75
2019-05-16T23:49:47.386Z,52.33
2019-05-16T23:52:16.965Z,57.55
2019-05-16T23:54:47.470Z,64.20
2019-05-16T23:57:17.067Z,55.70
2019-05-16T23:59:47.328Z,66.02
